createdAt,value
2018-06-21T00:01:00.852Z,26.10
2018-06-21T00:03:28.963Z,26.40
2018-06-21T00:05:56.712Z,25.80
2018-06-21T00:08:24.448Z,25.40
2018-06-21T00:10:52.229Z,25.40
2018-06-21T00:13:19.971Z,25.90
2018-06-21T00:15:47.724Z,26.10
2018-06-21T00:18:15.472Z,25.80
2018-06-21T00:20:43.239Z,25.90
2018-06-21T00:25:38.767Z,26.10
2018-06-21T00:28:06.523Z,26.10
2018-06-21T00:33:02.119Z,26.00
2018-06-21T00:35:29.884Z,26.10
2018-06-21T00:37:57.656Z,26.20
2018-06-21T00:40:25.383Z,26.40
2018-06-21T00:42:53.154Z,26.50
2018-06-21T00:45:21.613Z,26.30
2018-06-21T00:47:49.403Z,26.50
2018-06-21T00:50:17.173Z,26.20
2018-06-21T00:52:44.958Z,26.40
2018-06-21T00:55:12.789Z,26.50
2018-06-21T00:57:40.534Z,26.50
2018-06-21T01:00:08.310Z,26.50
2018-06-21T01:02:36.053Z,25.90
2018-06-21T01:05:04.472Z,26.30
2018-06-21T01:07:32.754Z,26.20
2018-06-21T01:10:00.500Z,26.10
2018-06-21T01:12:28.261Z,26.10
2018-06-21T01:14:56.020Z,26.00
2018-06-21T01:17:23.767Z,26.00
2018-06-21T01:19:51.511Z,26.00
2018-06-21T01:22:19.243Z,25.80
2018-06-21T01:24:47.036Z,26.20
2018-06-21T01:27:14.796Z,26.40
2018-06-21T01:29:42.553Z,26.60
2018-06-21T01:32:10.276Z,26.70
2018-06-21T01:34:38.035Z,26.80
2018-06-21T01:37:05.845Z,26.90
2018-06-21T01:39:33.578Z,26.50
2018-06-21T01:42:01.328Z,26.80
2018-06-21T01:44:29.079Z,26.70
2018-06-21T01:46:56.815Z,26.60
2018-06-21T01:49:24.548Z,26.60
2018-06-21T01:51:52.337Z,26.40
2018-06-21T01:54:20.109Z,26.20
2018-06-21T01:56:47.867Z,26.30
2018-06-21T01:59:15.596Z,26.50
2018-06-21T02:01:43.363Z,26.80
2018-06-21T02:04:11.117Z,26.00
2018-06-21T02:06:38.853Z,25.80
2018-06-21T02:09:07.941Z,26.10
2018-06-21T02:11:35.703Z,26.10
2018-06-21T02:14:03.508Z,26.00
2018-06-21T02:16:31.267Z,26.30
2018-06-21T02:18:59.017Z,26.50
2018-06-21T02:21:26.769Z,26.40
2018-06-21T02:23:54.588Z,26.30
2018-06-21T02:26:22.334Z,26.40
2018-06-21T02:28:50.098Z,25.90
2018-06-21T02:31:17.869Z,25.90
2018-06-21T02:33:45.665Z,25.90
2018-06-21T02:36:13.410Z,26.30
2018-06-21T02:38:41.163Z,26.60
2018-06-21T02:41:09.072Z,26.60
2018-06-21T02:43:36.845Z,26.40
2018-06-21T02:46:05.036Z,26.00
2018-06-21T02:48:32.793Z,26.10
2018-06-21T02:51:00.539Z,26.10
2018-06-21T02:53:28.285Z,26.20
2018-06-21T02:55:56.052Z,26.70
2018-06-21T03:00:52.036Z,27.20
2018-06-21T03:03:20.090Z,27.10
2018-06-21T03:05:47.980Z,26.90
2018-06-21T03:08:15.736Z,26.80
2018-06-21T03:10:43.557Z,26.70
2018-06-21T03:13:11.332Z,26.80
2018-06-21T03:15:39.111Z,26.80
2018-06-21T03:18:06.901Z,26.60
2018-06-21T03:20:34.691Z,26.40
2018-06-21T03:23:02.451Z,26.30
2018-06-21T03:25:30.196Z,26.50
2018-06-21T03:30:25.750Z,26.20
2018-06-21T03:32:53.655Z,26.10
2018-06-21T03:35:21.457Z,25.60
2018-06-21T03:37:49.235Z,25.80
2018-06-21T03:40:16.996Z,25.70
2018-06-21T03:42:44.739Z,25.70
2018-06-21T03:45:12.535Z,25.80
2018-06-21T03:47:40.265Z,25.80
2018-06-21T03:50:08.034Z,25.70
2018-06-21T03:52:35.807Z,25.40
2018-06-21T03:55:03.772Z,25.20
2018-06-21T03:57:31.540Z,25.10
2018-06-21T03:59:59.300Z,25.20
2018-06-21T04:02:27.050Z,25.30
2018-06-21T04:04:54.767Z,25.00
2018-06-21T04:07:22.584Z,24.60
2018-06-21T04:09:50.327Z,24.90
2018-06-21T04:12:18.108Z,25.00
2018-06-21T04:14:45.860Z,25.30
2018-06-21T04:17:13.605Z,25.40
2018-06-21T04:19:41.340Z,25.60
2018-06-21T04:22:09.117Z,25.50
2018-06-21T04:24:37.085Z,25.50
2018-06-21T04:27:04.856Z,25.40
2018-06-21T04:29:32.609Z,25.30
2018-06-21T04:34:28.168Z,25.40
2018-06-21T04:36:55.953Z,27.10
2018-06-21T04:39:23.707Z,25.40
2018-06-21T04:41:51.475Z,25.20
2018-06-21T04:44:19.237Z,25.20
2018-06-21T04:46:46.996Z,25.20
2018-06-21T04:49:14.776Z,24.90
2018-06-21T04:51:42.598Z,25.00
2018-06-21T04:54:10.363Z,24.90
2018-06-21T04:56:38.200Z,25.10
2018-06-21T04:59:05.970Z,25.20
2018-06-21T05:01:33.823Z,25.10
2018-06-21T05:04:01.620Z,25.00
2018-06-21T05:06:29.379Z,25.00
2018-06-21T05:08:57.305Z,25.20
2018-06-21T05:11:25.111Z,25.00
2018-06-21T05:13:52.878Z,25.10
2018-06-21T05:16:20.668Z,24.70
2018-06-21T05:18:48.949Z,24.40
2018-06-21T05:21:16.803Z,24.40
2018-06-21T05:23:44.565Z,24.40
2018-06-21T05:26:12.510Z,25.00
2018-06-21T05:28:40.286Z,25.10
2018-06-21T05:33:35.792Z,24.80
2018-06-21T05:36:03.542Z,24.60
2018-06-21T05:38:31.259Z,24.90
2018-06-21T05:40:58.953Z,24.80
2018-06-21T05:43:26.689Z,24.80
2018-06-21T05:45:54.412Z,24.70
2018-06-21T05:48:22.082Z,24.60
2018-06-21T05:50:49.766Z,24.70
2018-06-21T05:53:17.465Z,24.20
2018-06-21T05:55:45.127Z,24.50
2018-06-21T05:58:12.819Z,24.50
2018-06-21T06:00:40.518Z,24.60
2018-06-21T06:03:08.230Z,24.80
2018-06-21T06:05:35.935Z,24.60
2018-06-21T06:08:03.651Z,24.60
2018-06-21T06:10:31.365Z,24.60
2018-06-21T06:12:59.187Z,24.60
2018-06-21T06:15:26.896Z,24.80
2018-06-21T06:17:54.617Z,24.80
2018-06-21T06:20:22.320Z,24.30
2018-06-21T06:22:50.034Z,24.00
2018-06-21T06:25:17.738Z,24.00
2018-06-21T06:27:45.426Z,24.20
2018-06-21T06:30:14.066Z,24.20
2018-06-21T06:32:41.790Z,23.90
2018-06-21T06:35:09.487Z,23.90
2018-06-21T06:37:37.241Z,24.10
2018-06-21T06:40:05.030Z,24.10
2018-06-21T06:42:33.184Z,23.90
2018-06-21T06:45:00.949Z,24.00
2018-06-21T06:47:28.709Z,24.10
2018-06-21T06:49:57.737Z,24.00
2018-06-21T06:52:25.609Z,24.00
2018-06-21T06:54:53.397Z,24.20
2018-06-21T06:57:21.152Z,24.10
2018-06-21T06:59:48.871Z,23.80
2018-06-21T07:02:16.637Z,24.00
2018-06-21T07:07:21.967Z,24.00
2018-06-21T07:09:49.700Z,23.80
2018-06-21T07:12:17.462Z,23.70
2018-06-21T07:14:45.203Z,24.00
2018-06-21T07:17:12.947Z,24.20
2018-06-21T07:19:40.709Z,23.90
2018-06-21T07:22:08.448Z,24.00
2018-06-21T07:24:36.194Z,24.20
2018-06-21T07:27:03.967Z,24.20
2018-06-21T07:29:31.685Z,24.10
2018-06-21T07:31:59.454Z,24.00
2018-06-21T07:34:27.246Z,24.20
2018-06-21T07:39:23.012Z,24.30
2018-06-21T07:41:50.853Z,24.20
2018-06-21T07:46:46.505Z,24.60
2018-06-21T07:51:42.388Z,24.80
2018-06-21T07:54:10.203Z,24.80
2018-06-21T07:56:37.979Z,25.10
2018-06-21T07:59:05.778Z,25.10
2018-06-21T08:01:33.516Z,25.10
2018-06-21T08:04:01.330Z,25.10
2018-06-21T08:06:29.161Z,25.00
2018-06-21T08:08:56.951Z,25.20
2018-06-21T08:11:25.467Z,25.00
2018-06-21T08:13:53.227Z,24.80
2018-06-21T08:16:21.034Z,24.70
2018-06-21T08:18:48.883Z,24.50
2018-06-21T08:21:16.636Z,24.70
2018-06-21T08:23:44.355Z,24.90
2018-06-21T08:26:12.131Z,25.30
2018-06-21T08:28:39.910Z,25.40
2018-06-21T08:31:07.649Z,25.30
2018-06-21T08:33:35.544Z,25.30
2018-06-21T08:36:03.595Z,25.30
2018-06-21T08:38:31.352Z,25.50
2018-06-21T08:40:59.105Z,25.60
2018-06-21T08:43:28.122Z,25.50
2018-06-21T08:45:55.868Z,25.70
2018-06-21T08:48:23.684Z,25.60
2018-06-21T08:53:19.334Z,25.60
2018-06-21T08:58:14.879Z,25.80
2018-06-21T09:00:42.805Z,25.80
2018-06-21T09:03:10.523Z,26.00
2018-06-21T09:05:38.273Z,26.00
2018-06-21T09:08:05.996Z,25.90
2018-06-21T09:10:33.787Z,26.00
2018-06-21T09:13:01.569Z,25.90
2018-06-21T09:15:29.828Z,25.70
2018-06-21T09:17:57.575Z,25.30
2018-06-21T09:20:25.307Z,25.90
2018-06-21T09:22:53.070Z,25.60
2018-06-21T09:25:20.878Z,25.50
2018-06-21T09:27:48.700Z,25.70
2018-06-21T09:30:16.516Z,25.80
2018-06-21T09:32:44.291Z,26.00
2018-06-21T09:35:12.177Z,26.10
2018-06-21T09:37:45.665Z,26.00
2018-06-21T09:40:19.220Z,25.50
2018-06-21T09:42:52.750Z,25.20
2018-06-21T09:45:27.508Z,25.20
2018-06-21T09:48:01.110Z,25.70
2018-06-21T09:50:29.141Z,25.70
2018-06-21T09:52:56.903Z,25.80
2018-06-21T09:55:25.198Z,25.60
2018-06-21T09:57:52.979Z,25.80
2018-06-21T10:00:26.666Z,26.10
2018-06-21T10:02:54.484Z,26.30
2018-06-21T10:05:22.206Z,26.30
2018-06-21T10:07:50.128Z,26.40
2018-06-21T10:10:18.076Z,26.70
2018-06-21T10:12:45.835Z,27.00
2018-06-21T10:15:15.154Z,26.70
2018-06-21T10:17:42.989Z,26.90
2018-06-21T10:20:10.801Z,26.70
2018-06-21T10:22:38.619Z,26.50
2018-06-21T10:25:07.627Z,26.70
2018-06-21T10:27:36.244Z,26.50
2018-06-21T10:30:04.160Z,26.20
2018-06-21T10:32:32.599Z,26.20
2018-06-21T10:35:00.576Z,27.00
2018-06-21T10:37:28.470Z,26.50
2018-06-21T10:39:56.261Z,26.50
2018-06-21T10:42:24.205Z,26.30
2018-06-21T10:44:52.149Z,26.40
2018-06-21T10:47:19.935Z,26.40
2018-06-21T10:49:47.737Z,26.40
2018-06-21T10:52:15.508Z,26.50
2018-06-21T10:54:43.375Z,26.60
2018-06-21T10:57:11.463Z,26.80
2018-06-21T10:59:39.276Z,26.70
2018-06-21T11:02:07.298Z,27.50
2018-06-21T11:04:35.115Z,27.00
2018-06-21T11:07:03.023Z,27.20
2018-06-21T11:09:30.729Z,27.40
2018-06-21T11:11:58.566Z,27.10
2018-06-21T11:14:26.447Z,27.40
2018-06-21T11:16:54.314Z,27.40
2018-06-21T11:19:22.951Z,27.60
2018-06-21T11:21:50.711Z,27.60
2018-06-21T11:24:18.636Z,27.60
2018-06-21T11:26:46.478Z,28.60
2018-06-21T11:29:14.370Z,27.10
2018-06-21T11:34:10.109Z,27.40
2018-06-21T11:39:08.166Z,27.60
2018-06-21T11:41:36.025Z,27.80
2018-06-21T11:44:03.871Z,27.90
2018-06-21T11:46:31.850Z,28.20
2018-06-21T11:48:59.952Z,28.20
2018-06-21T11:51:28.271Z,29.20
2018-06-21T11:53:56.761Z,28.00
2018-06-21T11:56:24.590Z,28.00
2018-06-21T11:58:52.548Z,27.90
2018-06-21T12:01:20.538Z,27.90
2018-06-21T12:03:48.413Z,28.20
2018-06-21T12:06:16.455Z,28.50
2018-06-21T12:08:44.385Z,28.60
2018-06-21T12:11:13.135Z,28.40
2018-06-21T12:13:41.839Z,28.40
2018-06-21T12:16:09.862Z,28.50
2018-06-21T12:18:37.882Z,28.50
2018-06-21T12:21:06.204Z,28.40
2018-06-21T12:23:34.241Z,28.20
2018-06-21T12:26:03.201Z,28.40
2018-06-21T12:28:31.238Z,28.40
2018-06-21T12:30:59.249Z,27.20
2018-06-21T12:33:27.154Z,28.20
2018-06-21T12:35:54.953Z,28.50
2018-06-21T12:38:22.668Z,25.80
2018-06-21T12:40:50.398Z,23.80
2018-06-21T12:43:18.216Z,22.20
2018-06-21T12:48:13.931Z,20.70
2018-06-21T12:50:41.782Z,20.70
2018-06-21T12:53:09.569Z,20.00
2018-06-21T12:55:37.408Z,20.00
2018-06-21T12:58:05.249Z,20.30
2018-06-21T13:00:33.014Z,20.60
2018-06-21T13:03:00.799Z,20.60
2018-06-21T13:05:28.584Z,20.10
2018-06-21T13:07:56.256Z,20.30
2018-06-21T13:10:41.278Z,20.30
2018-06-21T13:13:21.791Z,20.10
2018-06-21T13:15:49.573Z,20.60
2018-06-21T13:18:17.317Z,20.60
2018-06-21T13:20:45.642Z,19.80
2018-06-21T13:23:13.440Z,20.00
2018-06-21T13:25:41.233Z,19.70
2018-06-21T13:28:08.945Z,19.30
2018-06-21T13:30:36.708Z,19.00
2018-06-21T13:33:04.782Z,18.60
2018-06-21T13:35:32.586Z,18.40
2018-06-21T13:38:00.418Z,18.70
2018-06-21T13:40:28.202Z,19.30
2018-06-21T13:42:55.976Z,19.30
2018-06-21T13:45:23.743Z,19.40
2018-06-21T13:47:51.516Z,19.00
2018-06-21T13:50:19.291Z,19.30
2018-06-21T13:52:47.025Z,19.00
2018-06-21T13:55:14.829Z,18.80
2018-06-21T13:57:42.569Z,18.90
2018-06-21T14:00:10.353Z,19.40
2018-06-21T14:02:38.142Z,19.60
2018-06-21T14:05:05.919Z,19.40
2018-06-21T14:07:33.891Z,18.80
2018-06-21T14:10:01.574Z,18.90
2018-06-21T14:12:29.303Z,18.80
2018-06-21T14:14:57.031Z,18.50
2018-06-21T14:17:24.801Z,18.20
2018-06-21T14:19:52.556Z,18.70
2018-06-21T14:22:20.269Z,19.30
2018-06-21T14:24:48.033Z,19.40
2018-06-21T14:29:43.583Z,19.40
2018-06-21T14:32:11.343Z,19.30
2018-06-21T14:34:39.070Z,18.80
2018-06-21T14:37:06.822Z,19.20
2018-06-21T14:39:34.707Z,19.50
2018-06-21T14:42:02.467Z,19.50
2018-06-21T14:44:30.183Z,19.70
2018-06-21T14:46:57.960Z,19.70
2018-06-21T14:49:25.719Z,20.20
2018-06-21T14:51:53.438Z,20.80
2018-06-21T14:54:23.235Z,20.50
2018-06-21T14:59:18.773Z,20.30
2018-06-21T15:01:46.658Z,19.60
2018-06-21T15:04:14.443Z,18.90
2018-06-21T15:06:42.200Z,18.10
2018-06-21T15:11:40.071Z,17.10
2018-06-21T15:14:07.811Z,17.00
2018-06-21T15:16:35.533Z,17.50
2018-06-21T15:19:03.328Z,18.10
2018-06-21T15:21:31.033Z,18.60
2018-06-21T15:23:58.777Z,18.30
2018-06-21T15:26:26.505Z,18.50
2018-06-21T15:28:54.256Z,18.70
2018-06-21T15:31:22.022Z,18.90
2018-06-21T15:33:49.771Z,19.60
2018-06-21T15:36:17.527Z,20.00
2018-06-21T15:38:45.260Z,19.60
2018-06-21T15:41:13.006Z,19.60
2018-06-21T15:43:40.738Z,20.20
2018-06-21T15:46:08.483Z,20.20
2018-06-21T15:48:36.205Z,20.00
2018-06-21T15:51:04.019Z,20.60
2018-06-21T15:53:31.729Z,20.70
2018-06-21T15:55:59.471Z,20.60
2018-06-21T15:58:27.229Z,20.20
2018-06-21T16:00:55.013Z,19.60
2018-06-21T16:03:22.987Z,19.10
2018-06-21T16:05:50.876Z,18.60
2018-06-21T16:08:18.630Z,18.80
2018-06-21T16:10:46.320Z,18.60
2018-06-21T16:13:15.003Z,18.70
2018-06-21T16:15:43.227Z,18.90
2018-06-21T16:18:11.043Z,19.00
2018-06-21T16:20:39.045Z,19.30
2018-06-21T16:23:06.768Z,19.50
2018-06-21T16:25:34.727Z,19.40
2018-06-21T16:28:02.534Z,19.10
2018-06-21T16:30:30.223Z,18.10
2018-06-21T16:32:57.906Z,16.80
2018-06-21T16:35:25.885Z,15.60
2018-06-21T16:37:53.608Z,15.20
2018-06-21T16:40:21.314Z,15.30
2018-06-21T16:42:49.038Z,15.40
2018-06-21T16:45:16.742Z,15.50
2018-06-21T16:47:44.439Z,15.20
2018-06-21T16:50:12.183Z,15.40
2018-06-21T16:52:40.578Z,15.50
2018-06-21T16:55:08.479Z,15.70
2018-06-21T16:57:37.859Z,15.60
2018-06-21T17:00:06.394Z,15.90
2018-06-21T17:02:34.229Z,15.80
2018-06-21T17:05:02.056Z,15.70
2018-06-21T17:07:29.819Z,15.80
2018-06-21T17:09:58.218Z,16.00
2018-06-21T17:12:26.288Z,16.40
2018-06-21T17:14:56.491Z,16.80
2018-06-21T17:17:29.107Z,16.70
2018-06-21T17:20:00.145Z,17.10
2018-06-21T17:22:29.255Z,17.20
2018-06-21T17:24:58.874Z,17.20
2018-06-21T17:27:26.731Z,17.00
2018-06-21T17:29:55.159Z,17.10
2018-06-21T17:34:51.544Z,16.60
2018-06-21T17:37:20.252Z,16.60
2018-06-21T17:39:48.706Z,17.10
2018-06-21T17:42:16.450Z,17.10
2018-06-21T17:44:44.152Z,16.80
2018-06-21T17:47:11.907Z,16.70
2018-06-21T17:49:39.599Z,16.60
2018-06-21T17:54:35.143Z,17.00
2018-06-21T17:57:02.868Z,16.50
2018-06-21T17:59:30.600Z,16.30
2018-06-21T18:01:58.313Z,16.10
2018-06-21T18:04:26.006Z,16.30
2018-06-21T18:06:53.749Z,16.10
2018-06-21T18:09:21.542Z,15.70
2018-06-21T18:11:49.534Z,15.60
2018-06-21T18:14:17.297Z,15.70
2018-06-21T18:16:44.990Z,15.90
2018-06-21T18:19:12.731Z,16.20
2018-06-21T18:21:40.426Z,16.60
2018-06-21T18:24:08.219Z,16.80
2018-06-21T18:26:35.971Z,17.10
2018-06-21T18:29:03.727Z,17.20
2018-06-21T18:31:31.484Z,17.10
2018-06-21T18:33:59.242Z,17.20
2018-06-21T18:36:27.103Z,17.20
2018-06-21T18:38:54.814Z,17.00
2018-06-21T18:41:22.514Z,16.70
2018-06-21T18:43:50.225Z,16.80
2018-06-21T18:46:17.902Z,16.70
2018-06-21T18:48:45.644Z,16.60
2018-06-21T18:51:13.402Z,16.90
2018-06-21T18:53:41.183Z,16.80
2018-06-21T18:56:08.903Z,16.70
2018-06-21T18:58:36.887Z,16.40
2018-06-21T19:01:04.627Z,16.40
2018-06-21T19:03:35.266Z,16.50
2018-06-21T19:06:03.084Z,16.80
2018-06-21T19:08:36.586Z,16.80
2018-06-21T19:11:10.157Z,18.00
2018-06-21T19:13:42.942Z,16.90
2018-06-21T19:16:10.820Z,16.80
2018-06-21T19:18:38.511Z,16.50
2018-06-21T19:21:06.292Z,16.80
2018-06-21T19:23:34.023Z,16.90
2018-06-21T19:26:01.691Z,17.10
2018-06-21T19:28:29.401Z,17.00
2018-06-21T19:30:59.297Z,16.80
2018-06-21T19:33:27.051Z,16.60
2018-06-21T19:35:54.780Z,16.10
2018-06-21T19:38:23.205Z,16.10
2018-06-21T19:40:50.954Z,16.40
2018-06-21T19:43:18.967Z,16.40
2018-06-21T19:45:46.794Z,16.20
2018-06-21T19:48:15.540Z,16.50
2018-06-21T19:50:43.296Z,16.40
2018-06-21T19:53:11.237Z,16.20
2018-06-21T19:55:38.966Z,16.30
2018-06-21T19:58:06.799Z,16.60
2018-06-21T20:03:04.757Z,16.60
2018-06-21T20:05:32.575Z,16.40
2018-06-21T20:08:00.286Z,16.80
2018-06-21T20:10:28.057Z,16.70
2018-06-21T20:12:55.947Z,17.10
2018-06-21T20:15:23.635Z,16.40
2018-06-21T20:17:51.285Z,16.10
2018-06-21T20:20:24.716Z,16.00
2018-06-21T20:22:52.428Z,15.80
2018-06-21T20:25:20.153Z,15.70
2018-06-21T20:27:47.886Z,16.10
2018-06-21T20:30:15.778Z,16.20
2018-06-21T20:32:43.810Z,16.00
2018-06-21T20:35:12.179Z,15.90
2018-06-21T20:37:39.940Z,15.80
2018-06-21T20:40:07.781Z,15.60
2018-06-21T20:42:35.576Z,15.60
2018-06-21T20:47:31.665Z,15.50
2018-06-21T20:49:59.578Z,15.70
2018-06-21T20:52:29.559Z,15.60
2018-06-21T20:54:58.253Z,16.00
2018-06-21T20:57:26.856Z,15.80
2018-06-21T20:59:54.664Z,16.10
2018-06-21T21:02:22.391Z,16.60
2018-06-21T21:05:08.298Z,17.00
2018-06-21T21:07:36.091Z,17.00
2018-06-21T21:10:05.611Z,16.80
2018-06-21T21:12:33.323Z,16.40
2018-06-21T21:15:02.126Z,16.10
2018-06-21T21:17:29.876Z,16.00
2018-06-21T21:19:57.649Z,16.10
2018-06-21T21:22:25.371Z,15.70
2018-06-21T21:24:53.081Z,15.80
2018-06-21T21:27:20.783Z,15.60
2018-06-21T21:29:48.495Z,15.60
2018-06-21T21:32:16.403Z,15.70
2018-06-21T21:34:44.128Z,16.30
2018-06-21T21:37:11.970Z,16.10
2018-06-21T21:39:39.747Z,15.70
2018-06-21T21:42:07.422Z,15.60
2018-06-21T21:44:35.126Z,15.60
2018-06-21T21:47:04.244Z,16.20
2018-06-21T21:49:31.907Z,16.50
2018-06-21T21:51:59.579Z,16.40
2018-06-21T21:54:27.253Z,16.30
2018-06-21T21:56:54.944Z,16.50
2018-06-21T21:59:22.656Z,16.20
2018-06-21T22:01:50.359Z,16.80
2018-06-21T22:04:18.068Z,16.90
2018-06-21T22:06:45.813Z,16.90
2018-06-21T22:09:13.483Z,16.30
2018-06-21T22:11:41.147Z,16.20
2018-06-21T22:14:08.863Z,16.20
2018-06-21T22:16:36.811Z,16.50
2018-06-21T22:19:05.560Z,17.20
2018-06-21T22:21:33.336Z,16.50
2018-06-21T22:24:01.006Z,16.80
2018-06-21T22:26:28.953Z,17.30
2018-06-21T22:28:56.761Z,17.10
2018-06-21T22:31:24.435Z,16.80
2018-06-21T22:33:52.211Z,17.20
2018-06-21T22:36:20.356Z,16.60
2018-06-21T22:38:48.019Z,16.80
2018-06-21T22:41:15.767Z,17.50
2018-06-21T22:43:43.433Z,17.40
2018-06-21T22:46:11.159Z,17.50
2018-06-21T22:51:06.643Z,17.30
2018-06-21T22:53:34.346Z,17.70
2018-06-21T22:56:02.043Z,17.80
2018-06-21T22:58:29.765Z,17.90
2018-06-21T23:00:57.457Z,18.00
2018-06-21T23:03:25.182Z,18.00
2018-06-21T23:05:52.982Z,17.80
2018-06-21T23:08:20.718Z,17.30
2018-06-21T23:10:48.409Z,17.50
2018-06-21T23:13:16.107Z,18.00
2018-06-21T23:15:43.838Z,18.20
2018-06-21T23:18:18.338Z,18.20
2018-06-21T23:20:46.023Z,18.70
2018-06-21T23:23:13.730Z,18.50
2018-06-21T23:25:41.450Z,18.50
2018-06-21T23:28:09.144Z,18.40
2018-06-21T23:33:04.786Z,17.80
2018-06-21T23:38:00.294Z,17.60
2018-06-21T23:40:27.991Z,18.10
2018-06-21T23:42:55.737Z,18.50
2018-06-21T23:45:23.465Z,18.20
2018-06-21T23:47:51.138Z,18.10
2018-06-21T23:50:18.851Z,17.70
2018-06-21T23:52:46.577Z,17.50
2018-06-21T23:55:14.273Z,17.90
2018-06-21T23:57:41.971Z,17.70
